Tiempo atmosférico en la estación meteorológica de Arevalo, Ávila (820 m.)



Fecha
DESCASC
Temp. máxima en grados centígrados (hora)
DESCASC
Temp. mínima en grados centígrados (hora)
DESCASC
Temp. media en grados centígrados
DESCASC
Racha de viento máxima en m/sg (hora)
DESCASC
Velocidad máxima media en intervalos de 10 minutos(hora)
DESCASC
Precipitaciones diarias en mm
DESCASC
Precipitaciones de 00:00 a 06:00 en mm
DESCASC
Precipitaciones de 06:00 a 12:00 en mm
DESCASC
Precipitaciones de 12:00 a 18:00 en mm
DESCASC
Precipitaciones de 18:00 a 24:00 en mm
DESCASC
11-12-2019 8.6 (15:50) 2.7 (23:59) 5.7 10.83 (10:50) 7.5 (23:20) 2.6 0 2.6 0 0
10-12-2019 9 (14:50) -2.4 (08:00) 3.3 3.61 (13:00) 2.78 (22:40) 0 0 0 0 0
09-12-2019 11.5 (15:30) 0.5 (23:59) 6 6.11 (10:20) 3.89 (11:10) 0 0 0 0 0
08-12-2019 10.5 (13:10) -0.3 (00:00) 5.1 7.5 (20:20) 4.44 (19:50) 0.8 0 0 0.8 0
07-12-2019 12.2 (14:20) -1.5 (-00:0) 5.3 3.89 (14:40) 2.5 (14:40) 0 0 0 0 0
06-12-2019 11.8 (16:10) -1.7 (-00:0) 5.1 3.61 (16:50) 2.5 (17:00) 0 0 0 0 0
05-12-2019 10.8 (16:10) 1.2 (00:00) 6 7.78 (00:20) 4.44 (00:20) 0 0 0 0 0
04-12-2019 6.2 (16:20) -1.8 (-00:0) 2.2 6.39 (23:59) 2.78 (12:50) 0 0 0 0 0
03-12-2019 6.3 (15:50) -2.9 (-00:0) 1.7 5 (15:20) 2.5 (15:20) 0 0 0 0 0
02-12-2019 9.8 (14:10) 0.6 (00:00) 5.2 10.28 (13:10) 6.11 (12:40) 0 0 0 0 0
01-12-2019 8.3 (15:00) 2.4 (00:00) 5.4 6.94 (23:30) 4.17 (11:10) 6.6 0.2 4.2 0.6 1.6
30-11-2019 15 (12:00) 4.2 (00:00) 9.6 15 (14:40) 10 (15:10) 9.2 0 0 8 1.2
29-11-2019 13.8 (15:50) 10.4 (00:00) 12.1 11.67 (00:50) 8.33 (00:10) 1.6 0 0.6 0.8 0.2
28-11-2019 12.3 (12:50) 6.7 (00:00) 9.5 13.33 (17:40) 9.17 (13:20) 0 0 0 0 0
27-11-2019 11.9 (14:50) 6.2 (00:00) 9 14.17 (15:00) 10 (15:00) 0 0 0 0 0
26-11-2019 17.1 (14:40) 6.5 (00:00) 11.8 14.72 (19:30) 8.89 (22:30) 0.4 0 0.4 0 0
25-11-2019 13.7 (13:30) 7.5 (00:00) 10.6 14.72 (02:10) 10 (02:10) 0.6 0.6 0 0 0
24-11-2019 10.3 (23:59) 2.8 (00:00) 6.6 9.72 (07:40) 6.39 (23:59) 0 0 0 0 0
23-11-2019 9.7 (14:50) 3.5 (00:00) 6.6 16.39 (03:40) 10 (11:40) 2.2 2.2 0 0 0
22-11-2019 14.7 (14:30) 5 (00:00) 9.8 17.22 (14:40) 11.39 (15:50) 6.6 0.4 2.4 3 0.8
21-11-2019 9.3 (14:50) 2.1 (00:00) 5.7 9.44 (11:40) 6.11 (11:40) 0.6 0 0 0.6 0
20-11-2019 6.6 (13:30) 2.6 (00:00) 4.6 7.78 (18:30) 4.44 (18:30) 3.2 0 0.8 2.2 0.2
19-11-2019 8.9 (14:10) -1.3 (-00:0) 3.8 4.44 (16:00) 2.22 (09:20) 0 0 0 0 0
18-11-2019 7.6 (16:00) 0.1 (00:00) 3.8 7.5 (00:30) 4.44 (00:30) 0 0 0 0 0
17-11-2019 9.9 (16:10) 2.7 (00:00) 6.3 13.06 (11:50) 8.61 (11:40) 2.4 0 1.2 1.2 0
16-11-2019 7.6 (15:00) -1.2 (-00:0) 3.2 8.06 (16:50) 5.56 (10:40) 0 0 0 0 0
15-11-2019 7.3 (14:50) 0.4 (00:00) 3.9 12.22 (02:20) 6.11 (01:50) 0.8 0.8 0 0 0

Gráficas

Temp. máximas Temp. mínimas Temp. medias Precipitaciones Rachas de viento máximas Velocidades máximas media en intervalos de 10 minutos

Datos horarios

Fecha y hora oficial Temperatura (ºC) Velocidad del viento (km/h) Dirección del viento Racha (km/h) Dirección de racha Precipitación (mm) Presión (hPa) Tendencia (hPa) Humedad (%)
2019-12-14 23:00:00 8.3 7 Sudoeste 15 Sudoeste 0 -- -- 84
2019-12-14 22:00:00 8.2 7 Sudoeste 14 Sudoeste 0 -- -- 82
2019-12-14 21:00:00 8.3 7 Sudoeste 16 Sudoeste 0 -- -- 81
2019-12-14 20:00:00 8.7 9 Sudoeste 25 Oeste 0 -- -- 80
2019-12-14 19:00:00 9.4 14 Oeste 25 Oeste 0 -- -- 79
2019-12-14 18:00:00 9.8 13 Oeste 24 Oeste 0 -- -- 81
2019-12-14 17:00:00 10.5 11 Oeste 26 Oeste 0 -- -- 76
2019-12-14 16:00:00 10.4 14 Oeste 28 Oeste 0 -- -- 76
2019-12-14 15:00:00 10.6 15 Oeste 31 Oeste 0 -- -- 74
2019-12-14 14:00:00 10.5 15 Sudoeste 30 Oeste 0 -- -- 76
2019-12-14 13:00:00 9.6 18 Oeste 30 Oeste 0 -- -- 81
2019-12-14 12:00:00 9.7 18 Oeste 29 Oeste 0 -- -- 79
2019-12-14 11:00:00 9 13 Oeste 24 Sudoeste 0 -- -- 83
2019-12-14 10:00:00 8.2 12 Sudoeste 20 Oeste 0 -- -- 82
2019-12-14 09:00:00 8 13 Oeste 30 Oeste 0 -- -- 81
2019-12-14 08:00:00 8.1 16 Oeste 27 Oeste 0 -- -- 79
2019-12-14 07:00:00 8.2 15 Oeste 24 Oeste 0 -- -- 80
2019-12-14 06:00:00 8.3 15 Oeste 29 Oeste 0 -- -- 81
2019-12-14 05:00:00 8.4 20 Oeste 31 Oeste 0 -- -- 82
2019-12-14 04:00:00 8 14 Oeste 28 Oeste 0 -- -- 86
2019-12-14 03:00:00 7.9 18 Oeste 32 Noroeste 0 -- -- 89
2019-12-14 02:00:00 8.2 15 Oeste 25 Oeste 0 -- -- 89
2019-12-14 01:00:00 8.7 15 Noroeste 31 Oeste 0 -- -- 88
2019-12-14 00:00:00 9.2 14 Oeste 37 Oeste 0 -- -- 87
2019-12-13 23:00:00 9.6 18 Oeste 37 Oeste 0 -- -- 86
2019-12-13 22:00:00 9.7 19 Oeste 35 Oeste 0 -- -- 87
2019-12-13 21:00:00 9.7 26 Oeste 40 Oeste 0 -- -- 88
2019-12-13 20:00:00 10.1 27 Oeste 37 Oeste 0 -- -- 88
2019-12-13 19:00:00 10.2 26 Oeste 39 Oeste 0 -- -- 87
2019-12-13 18:00:00 10.7 23 Oeste 44 Oeste 0 -- -- 86
2019-12-13 17:00:00 11.2 28 Oeste 48 Oeste 0 -- -- 86
2019-12-13 16:00:00 12.1 25 Oeste 47 Oeste 0 -- -- 84
2019-12-13 15:00:00 12.3 26 Oeste 51 Oeste 0 -- -- 81
2019-12-13 14:00:00 11.9 27 Noroeste 51 Oeste 0 -- -- 82
2019-12-13 13:00:00 11.8 27 Noroeste 58 Oeste 0 -- -- 82
2019-12-13 12:00:00 11.8 33 Oeste 58 Oeste 0 -- -- 79
2019-12-13 11:00:00 11.2 44 Oeste 62 Oeste 0 -- -- 80
2019-12-13 10:00:00 9.7 37 Oeste 58 Oeste 0 -- -- 85
2019-12-13 09:00:00 8.9 37 Oeste 54 Oeste 0 -- -- 87
2019-12-13 08:00:00 8.9 34 Oeste 55 Oeste 0 -- -- 87
2019-12-13 07:00:00 9.5 39 Oeste 60 Oeste 0 -- -- 87
2019-12-13 06:00:00 9.9 40 Oeste 56 Oeste 0 -- -- 88
2019-12-13 05:00:00 10.1 33 Oeste 57 Oeste 0 -- -- 90
2019-12-13 04:00:00 10.3 28 Oeste 53 Oeste 0 -- -- 91
2019-12-13 03:00:00 10.4 27 Oeste 49 Oeste 0 -- -- 92
2019-12-13 02:00:00 10.2 26 Oeste 50 Oeste 0 -- -- 93
2019-12-13 01:00:00 10.5 29 Oeste 52 Oeste 0 -- -- 90
2019-12-13 00:00:00 10.4 28 Oeste 52 Oeste 0 -- -- 90
2019-12-12 23:00:00 10.2 28 Oeste 48 Oeste 0 -- -- 91
2019-12-12 22:00:00 10 36 Oeste 59 Oeste 0 -- -- 92
2019-12-12 21:00:00 9.5 30 Oeste 54 Oeste 0 -- -- 94
2019-12-12 20:00:00 8.9 32 Oeste 57 Oeste 0 -- -- 92
2019-12-12 19:00:00 8.6 41 Oeste 62 Oeste 0 -- -- 91
2019-12-12 18:00:00 7.6 38 Oeste 59 Oeste 0 -- -- 94
2019-12-12 17:00:00 6.9 39 Oeste 57 Oeste 0 -- -- 95
2019-12-12 16:00:00 6.4 37 Oeste 56 Oeste 0 -- -- 94
2019-12-12 15:00:00 6.9 37 Oeste 57 Oeste 0 -- -- 89
2019-12-12 14:00:00 6.9 37 Oeste 53 Oeste 0 -- -- 85
2019-12-12 13:00:00 6.7 32 Oeste 51 Oeste 0 -- -- 86
2019-12-12 12:00:00 6.4 31 Oeste 49 Oeste 0 -- -- 84
2019-12-12 11:00:00 6.2 29 Oeste 44 Oeste 0 -- -- 84
2019-12-12 10:00:00 5.7 27 Oeste 40 Oeste 0 -- -- 87
2019-12-12 09:00:00 5.1 23 Oeste 40 Oeste 0 -- -- 90
2019-12-12 08:00:00 4.8 27 Oeste 40 Oeste 0 -- -- 91
2019-12-12 07:00:00 4.3 20 Oeste 37 Oeste 0 -- -- 91
2019-12-12 06:00:00 4 24 Oeste 36 Oeste 0 -- -- 91
2019-12-12 05:00:00 4 22 Oeste 39 Oeste 0 -- -- 90
2019-12-12 04:00:00 3.9 22 Oeste 37 Oeste 0 -- -- 91
2019-12-12 03:00:00 3.7 21 Oeste 37 Oeste 0 -- -- 91
2019-12-12 02:00:00 3.6 25 Oeste 36 Oeste 0 -- -- 90
2019-12-12 01:00:00 3.2 18 Oeste 32 Oeste 0 -- -- 90
2019-12-12 00:00:00 2.7 14 Oeste 36 Oeste 0 -- -- 88
2019-12-11 23:00:00 3 23 Oeste 34 Oeste 0 -- -- 85
2019-12-11 22:00:00 3.1 17 Oeste 32 Oeste 0 -- -- 83
2019-12-11 21:00:00 3.7 23 Oeste 32 Oeste 0 -- -- 81
2019-12-11 20:00:00 3.8 19 Oeste 28 Oeste 0 -- -- 82
2019-12-11 19:00:00 4.3 12 Oeste 21 Oeste 0 -- -- 82
2019-12-11 18:00:00 6 12 Noroeste 35 Noroeste 0 -- -- 74
2019-12-11 17:00:00 7.6 19 Noroeste 30 Oeste 0 -- -- 72
2019-12-11 16:00:00 8.3 18 Noroeste 31 Oeste 0 -- -- 69
2019-12-11 15:00:00 8 17 Noroeste 38 Noroeste 0 -- -- 71
2019-12-11 14:00:00 7.6 21 Norte 36 Norte 0 -- -- 74
2019-12-11 13:00:00 7 16 Noroeste 36 Norte 0 -- -- 81
2019-12-11 12:00:00 6.7 15 Noroeste 32 Oeste 0 -- -- 89
2019-12-11 11:00:00 5.9 21 Noroeste 39 Noroeste 0 -- -- 95
2019-12-11 10:00:00 4.9 19 Noroeste 33 Noroeste 0.4 -- -- 95
2019-12-11 09:00:00 4.8 16 Noroeste 30 Oeste 1.6 -- -- 93
2019-12-11 08:00:00 5.7 4 Oeste 13 Oeste 0.6 -- -- 84
2019-12-11 07:00:00 5 5 Sur 16 Oeste 0 -- -- 68
2019-12-11 06:00:00 4.8 3 Sudoeste 13 Sur 0 -- -- 66
2019-12-11 05:00:00 4.7 5 Sur 14 Sudoeste 0 -- -- 65
2019-12-11 04:00:00 5.8 6 Sudoeste 13 Sur 0 -- -- 63
2019-12-11 03:00:00 5.1 5 Sur 21 Oeste 0 -- -- 75
2019-12-11 02:00:00 5 6 Sudoeste 15 Sudoeste 0 -- -- 69
2019-12-11 01:00:00 3.2 6 Sur 10 Sudoeste 0 -- -- 83
2019-12-11 00:00:00 3.1 5 Sudoeste 8 Sudoeste 0 -- -- 92
2019-12-10 23:00:00 2.8 3 Sudoeste 13 Sur 0 -- -- 96
2019-12-10 22:00:00 3.2 6 Sur 10 Sur 0 -- -- 95
2019-12-10 21:00:00 4.2 4 Sudoeste 8 Sudoeste 0 -- -- 94
2019-12-10 20:00:00 5 4 Sur 5 Sudoeste 0 -- -- 90
2019-12-10 19:00:00 6.1 2 Oeste 10 Sur 0 -- -- 85
2019-12-10 18:00:00 7.3 3 Sudoeste -- -- 0 -- -- 75
2019-12-10 17:00:00 8.1 0 Calma 4 Nordeste 0 -- -- 71
2019-12-10 16:00:00 8.2 4 Norte 11 Norte 0 -- -- 67
2019-12-10 15:00:00 8.6 7 Norte 10 Norte 0 -- -- 69
2019-12-10 14:00:00 8.5 4 Nordeste 10 Norte 0 -- -- 71
2019-12-10 13:00:00 6 10 Norte 13 Norte 0 -- -- 82
2019-12-10 12:00:00 3.6 3 Este 7 Este 0 -- -- 85
2019-12-10 11:00:00 2.4 0 Calma 8 Sudoeste 0 -- -- 89
2019-12-10 10:00:00 0 6 Sudoeste 9 Sur 0 -- -- 96
2019-12-10 09:00:00 -1.7 5 Sudoeste 9 Sudoeste 0 -- -- 99
2019-12-10 08:00:00 -2.4 6 Sudoeste 8 Sudoeste 0 -- -- 99
2019-12-10 07:00:00 -2.1 4 Sudoeste 9 Sudeste 0 -- -- 99
2019-12-10 06:00:00 -1.4 3 Sur 8 Sur 0 -- -- 99
2019-12-10 05:00:00 -1.2 5 Sur 9 Oeste 0 -- -- 99
2019-12-10 04:00:00 -1 5 Sur 10 Sur 0 -- -- 100
2019-12-10 03:00:00 -1 5 Sudoeste 6 Sudoeste 0 -- -- 99
2019-12-10 02:00:00 -0.6 3 Sur 8 Sur 0 -- -- 99
2019-12-10 01:00:00 -0.1 2 Sudeste 8 Sur 0 -- -- 99
2019-12-10 00:00:00 0.5 4 Sur 9 Sur 0 -- -- 97
2019-12-09 23:00:00 1.3 4 Oeste 8 Sudeste 0 -- -- 97
2019-12-09 22:00:00 2.6 3 Sudeste 6 Sur 0 -- -- 97
2019-12-09 21:00:00 3.6 3 Sudoeste 6 Sur 0 -- -- 96
2019-12-09 20:00:00 4.6 0 Calma 3 Oeste 0 -- -- 93
2019-12-09 19:00:00 6.6 0 Calma 8 Nordeste 0 -- -- 90
2019-12-09 18:00:00 8.1 4 Nordeste 10 Nordeste 0 -- -- 85
2019-12-09 17:00:00 9.7 8 Norte 13 Norte 0 -- -- 77
2019-12-09 16:00:00 11.1 9 Norte 14 Norte 0 -- -- 73
2019-12-09 15:00:00 10.9 8 Noroeste 13 Noroeste 0 -- -- 75
2019-12-09 14:00:00 10.3 8 Noroeste 15 Noroeste 0 -- -- 78
2019-12-09 13:00:00 10.6 8 Oeste 21 Oeste 0 -- -- 71
2019-12-09 12:00:00 6.1 11 Sudoeste 22 Sudoeste 0 -- -- 100
2019-12-09 11:00:00 4.9 13 Sudoeste 22 Oeste 0 -- -- 100
2019-12-09 10:00:00 4 11 Oeste 17 Oeste 0 -- -- 100
2019-12-09 09:00:00 4 8 Oeste 21 Oeste 0 -- -- 100
2019-12-09 08:00:00 5.3 4 Oeste 13 Oeste 0 -- -- 100
2019-12-09 07:00:00 5.8 4 Noroeste 8 Noroeste 0 -- -- 100
2019-12-09 06:00:00 5.1 0 Calma 10 Sudoeste 0 -- -- 99
2019-12-09 05:00:00 6.1 5 Sudoeste 14 Oeste 0 -- -- 99
2019-12-09 04:00:00 5.4 4 Oeste 13 Sudoeste 0 -- -- 99
2019-12-09 03:00:00 5.8 6 Sudoeste 12 Oeste 0 -- -- 96
2019-12-09 02:00:00 7.6 3 Oeste 14 Noroeste 0 -- -- 95
2019-12-09 01:00:00 8.6 7 Noroeste 13 Noroeste 0 -- -- 98
2019-12-09 00:00:00 9 5 Noroeste 12 Noroeste 0 -- -- 98
2019-12-08 23:00:00 9.4 8 Noroeste 20 Oeste 0 -- -- 98
2019-12-08 22:00:00 9.6 8 Noroeste 22 Noroeste 0 -- -- 99
2019-12-08 21:00:00 9.8 10 Noroeste 27 Noroeste 0 -- -- 99
2019-12-08 20:00:00 10 15 Noroeste 26 Noroeste 0 -- -- 98
2019-12-08 19:00:00 10 14 Noroeste 25 Noroeste 0 -- -- 98
2019-12-08 18:00:00 9.9 10 Oeste 20 Oeste 0.2 -- -- 97
2019-12-08 17:00:00 10.2 10 Oeste 26 Oeste 0.2 -- -- 96
2019-12-08 16:00:00 10.3 9 Oeste 19 Oeste 0.2 -- -- 97
2019-12-08 15:00:00 9.8 8 Oeste 24 Noroeste 0.2 -- -- 95
2019-12-08 14:00:00 10.2 9 Noroeste 25 Noroeste 0 -- -- 89
2019-12-08 13:00:00 10.4 9 Noroeste 18 Oeste 0 -- -- 85
2019-12-08 12:00:00 8 5 Sudoeste 10 Sur 0 -- -- 87
2019-12-08 11:00:00 5.6 5 Sur 12 Sur 0 -- -- 93
2019-12-08 10:00:00 3 8 Sur 12 Sur 0 -- -- 97
2019-12-08 09:00:00 1 6 Sur 13 Sur 0 -- -- 98
2019-12-08 08:00:00 0.1 3 Sudoeste 10 Sur 0 -- -- 98
2019-12-08 07:00:00 0.1 5 Sur 10 Sudoeste 0 -- -- 98
2019-12-08 06:00:00 -0.3 3 Sudoeste 10 Sur 0 -- -- 98
2019-12-08 05:00:00 -0.2 5 Sur 12 Sur 0 -- -- 98
2019-12-08 04:00:00 0.2 5 Sur 10 Sur 0 -- -- 98
2019-12-08 03:00:00 0.4 6 Sur 10 Sur 0 -- -- 98
2019-12-08 02:00:00 0.6 5 Sur 9 Sudoeste 0 -- -- 98
2019-12-08 01:00:00 1.1 7 Sur 12 Sur 0 -- -- 98
2019-12-08 00:00:00 1.6 5 Sur 10 Sur 0 -- -- 98
2019-12-07 23:00:00 2 6 Sur 8 Sur 0 -- -- 98
2019-12-07 22:00:00 2.7 5 Sur 9 Sur 0 -- -- 97
2019-12-07 21:00:00 3.4 6 Sur 9 Sur 0 -- -- 96
2019-12-07 20:00:00 4.2 4 Sudoeste 8 Sudoeste 0 -- -- 93
2019-12-07 19:00:00 6.4 0 Calma 7 Norte 0 -- -- 89
2019-12-07 18:00:00 8.3 4 Noroeste 9 Norte 0 -- -- 84
2019-12-07 17:00:00 10.7 6 Norte 10 Norte 0 -- -- 73
2019-12-07 16:00:00 11.2 6 Norte 13 Norte 0 -- -- 71
2019-12-07 15:00:00 11.6 8 Norte 14 Norte 0 -- -- 67
2019-12-07 14:00:00 11.9 3 Sudoeste 6 Oeste 0 -- -- 67
2019-12-07 13:00:00 10 2 Oeste 8 Norte 0 -- -- 75
2019-12-07 12:00:00 7.2 4 Norte 9 Oeste 0 -- -- 85
2019-12-07 11:00:00 5 4 Sudoeste 10 Sur 0 -- -- 89
2019-12-07 10:00:00 1.3 8 Sur 10 Sur 0 -- -- 97
2019-12-07 09:00:00 -1.3 0 Calma 5 Noroeste 0 -- -- 98
2019-12-07 08:00:00 -1.2 0 Calma 5 Noroeste 0 -- -- 98
2019-12-07 07:00:00 -0.6 4 Sur 8 Sur 0 -- -- 98
2019-12-07 06:00:00 -0.5 3 Sudoeste 13 Sudoeste 0 -- -- 98
2019-12-07 05:00:00 -0.4 7 Sur 10 Sur 0 -- -- 98
2019-12-07 04:00:00 -0.2 2 Sur 8 Sudoeste 0 -- -- 98
2019-12-07 03:00:00 -0.2 4 Sudoeste 10 Sur 0 -- -- 98
2019-12-07 02:00:00 0.3 5 Sur 8 Sur 0 -- -- 98
2019-12-07 01:00:00 0.8 2 Sur 9 Sur 0 -- -- 98
2019-12-07 00:00:00 1 6 Sur 8 Sudoeste 0 -- -- 98
2019-12-06 23:00:00 1.7 3 Sur 10 Sur 0 -- -- 97
2019-12-06 22:00:00 2.1 3 Sur 7 Sur 0 -- -- 96
2019-12-06 21:00:00 3.1 3 Sur 4 Sur 0 -- -- 94
2019-12-06 20:00:00 4.3 0 Calma 3 Este 0 -- -- 91
2019-12-06 19:00:00 6.3 0 Calma 4 Norte 0 -- -- 87
2019-12-06 18:00:00 8.4 3 Norte 12 Norte 0 -- -- 81
2019-12-06 17:00:00 10.5 9 Norte 13 Norte 0 -- -- 74
2019-12-06 16:00:00 11.6 5 Nordeste 11 Nordeste 0 -- -- 65
2019-12-06 15:00:00 11.6 6 Este 11 Nordeste 0 -- -- 66
2019-12-06 14:00:00 11.3 5 Nordeste 10 Nordeste 0 -- -- 69
2019-12-06 13:00:00 10.4 3 Este 9 Este 0 -- -- 71
2019-12-06 12:00:00 8.4 5 Este 9 Este 0 -- -- 78
2019-12-06 11:00:00 4.6 2 Oeste 5 Sur 0 -- -- 90
2019-12-06 10:00:00 1 0 Calma 11 Sur 0 -- -- 98
2019-12-06 09:00:00 -0.9 5 Sur 8 Sur 0 -- -- 100
2019-12-06 08:00:00 -1.5 0 Calma 5 Sudoeste 0 -- -- 99
2019-12-06 07:00:00 -1.7 3 Sudoeste 9 Sur 0 -- -- 99
2019-12-06 06:00:00 -1 5 Sur 8 Sur 0 -- -- 99
2019-12-06 05:00:00 -1 5 Sudoeste 8 Sudoeste 0 -- -- 98
2019-12-06 04:00:00 -0.6 3 Sudoeste 8 Sur 0 -- -- 98
2019-12-06 03:00:00 0 5 Sudoeste 7 Sur 0 -- -- 97
2019-12-06 02:00:00 0.8 3 Norte 12 Norte 0 -- -- 98
2019-12-06 01:00:00 0.8 5 Sudoeste 10 Sur 0 -- -- 97
2019-12-06 00:00:00 1.5 0 Calma 12 Sur 0 -- -- 96
2019-12-05 23:00:00 2.6 9 Sur 15 Sur 0 -- -- 93
2019-12-05 22:00:00 4.1 4 Nordeste 10 Norte 0 -- -- 92
2019-12-05 21:00:00 5 6 Norte 12 Nordeste 0 -- -- 89
2019-12-05 20:00:00 6 8 Norte 13 Norte 0 -- -- 88
2019-12-05 19:00:00 7.1 6 Nordeste 12 Nordeste 0 -- -- 84
2019-12-05 18:00:00 8.7 7 Nordeste 17 Nordeste 0 -- -- 79
2019-12-05 17:00:00 10 5 Nordeste 15 Este 0 -- -- 72
2019-12-05 16:00:00 10.6 10 Nordeste 18 Este 0 -- -- 68
2019-12-05 15:00:00 10 9 Nordeste 18 Este 0 -- -- 70
2019-12-05 14:00:00 9.9 10 Sudeste 22 Sudeste 0 -- -- 71
2019-12-05 13:00:00 8.7 11 Nordeste 18 Nordeste 0 -- -- 76
2019-12-05 12:00:00 6.6 10 Este 22 Este 0 -- -- 85
2019-12-05 11:00:00 5.3 8 Este 19 Nordeste 0 -- -- 90
2019-12-05 10:00:00 4.5 8 Nordeste 19 Este 0 -- -- 92
2019-12-05 09:00:00 3.3 3 Nordeste 7 Nordeste 0 -- -- 97
2019-12-05 08:00:00 1.3 3 Oeste 4 Sur 0 -- -- 97
2019-12-05 07:00:00 1.6 0 Calma 4 Norte 0 -- -- 96
2019-12-05 06:00:00 2.2 2 Norte 7 Norte 0 -- -- 96
2019-12-05 05:00:00 2.8 3 Norte 9 Norte 0 -- -- 94
2019-12-05 04:00:00 3.5 4 Norte 8 Norte 0 -- -- 90
2019-12-05 03:00:00 3.4 3 Noroeste 6 Norte 0 -- -- 90
2019-12-05 02:00:00 3.3 5 Norte 18 Nordeste 0 -- -- 87
2019-12-05 01:00:00 3.5 10 Nordeste 28 Este 0 -- -- 85
2019-12-05 00:00:00 3.1 9 Nordeste 23 Nordeste 0 -- -- 93
2019-12-04 23:00:00 0.9 2 Sudoeste 10 Sur 0 -- -- 97
2019-12-04 22:00:00 1.9 8 Sur 12 Sudoeste 0 -- -- 96
2019-12-04 21:00:00 2.9 4 Sur 7 Sur 0 -- -- 96
2019-12-04 20:00:00 3.5 5 Sudoeste 10 Sur 0 -- -- 94
2019-12-04 19:00:00 4.3 6 Sur 11 Sur 0 -- -- 94
2019-12-04 18:00:00 4.9 4 Sudoeste 10 Oeste 0 -- -- 91
2019-12-04 17:00:00 5.7 5 Sudoeste 8 Sur 0 -- -- 88
2019-12-04 16:00:00 5.5 2 Oeste 12 Norte 0 -- -- 87
2019-12-04 15:00:00 3.9 7 Noroeste 13 Norte 0 -- -- 90
2019-12-04 14:00:00 3 6 Norte 12 Norte 0 -- -- 91
2019-12-04 13:00:00 2 6 Noroeste 20 Noroeste 0 -- -- 97
2019-12-04 12:00:00 0.7 2 Sudoeste 10 Sudoeste 0 -- -- 99
2019-12-04 11:00:00 -0.2 6 Sudoeste 13 Sudoeste 0 -- -- 99
2019-12-04 10:00:00 -0.9 5 Sudoeste 9 Sudeste 0 -- -- 99
2019-12-04 09:00:00 -1.6 4 Este 12 Noroeste 0 -- -- 98
2019-12-04 08:00:00 -1.5 3 Noroeste 8 Oeste 0 -- -- 97
2019-12-04 07:00:00 -1.2 4 Norte 8 Noroeste 0 -- -- 97
2019-12-04 06:00:00 -1.3 4 Noroeste 8 Oeste 0 -- -- 96
2019-12-04 05:00:00 -0.8 3 Noroeste 8 Noroeste 0 -- -- 95
2019-12-04 04:00:00 -0.2 0 Calma 9 Sudeste 0 -- -- 95
2019-12-04 03:00:00 0.4 3 Norte 5 Este 0 -- -- 94
2019-12-04 02:00:00 1.1 0 Calma 6 Nordeste 0 -- -- 93
2019-12-04 01:00:00 1.6 4 Sudeste 9 Nordeste 0 -- -- 94
2019-12-04 00:00:00 1.6 2 Norte 9 Este 0 -- -- 95
2019-12-03 23:00:00 0.7 5 Sudeste 9 Sudeste 0 -- -- 94
2019-12-03 22:00:00 0.9 0 Calma 5 Oeste 0 -- -- 94
2019-12-03 21:00:00 0.7 0 Calma 5 Este 0 -- -- 92
2019-12-03 20:00:00 1.6 0 Calma 4 Este 0 -- -- 87
2019-12-03 19:00:00 3.2 0 Calma 8 Este 0 -- -- 84
2019-12-03 18:00:00 4.9 2 Nordeste 10 Este 0 -- -- 76
2019-12-03 17:00:00 6.1 7 Este 13 Este 0 -- -- 67
2019-12-03 16:00:00 6.2 9 Este 18 Sudeste 0 -- -- 66
2019-12-03 15:00:00 5.8 9 Este 17 Sudeste 0 -- -- 70
2019-12-03 14:00:00 4.8 6 Este 14 Este 0 -- -- 76
2019-12-03 13:00:00 3.6 5 Nordeste 10 Nordeste 0 -- -- 79
2019-12-03 12:00:00 2 4 Sudeste 9 Este 0 -- -- 85
2019-12-03 11:00:00 1.2 3 Este 6 Sudeste 0 -- -- 94
2019-12-03 10:00:00 -0.7 3 Nordeste 5 Nordeste 0 -- -- 97
2019-12-03 09:00:00 -1.5 0 Calma 4 Sudeste 0 -- -- 98
2019-12-03 08:00:00 -2.7 0 Calma 6 Sudoeste 0 -- -- 97
2019-12-03 07:00:00 -2.7 3 Sudoeste 6 Sudoeste 0 -- -- 97
2019-12-03 06:00:00 -2.6 0 Calma 3 Sudeste 0 -- -- 97
2019-12-03 05:00:00 -2.3 0 Calma 6 Norte 0 -- -- 96
2019-12-03 04:00:00 -1.8 0 Calma 7 Oeste 0 -- -- 96
2019-12-03 03:00:00 -1.5 5 Oeste 6 Oeste 0 -- -- 95
2019-12-03 02:00:00 -0.8 4 Oeste 6 Oeste 0 -- -- 94
2019-12-03 01:00:00 -0.1 2 Norte 8 Nordeste 0 -- -- 92
2019-12-03 00:00:00 0.6 3 Sudeste 15 Norte 0 -- -- 89
2019-12-02 23:00:00 1.7 10 Nordeste 23 Nordeste 0 -- -- 86
2019-12-02 22:00:00 2.4 11 Nordeste 25 Nordeste 0 -- -- 85
2019-12-02 21:00:00 3.2 13 Nordeste 27 Nordeste 0 -- -- 85
2019-12-02 20:00:00 3.9 16 Nordeste 33 Nordeste 0 -- -- 85
2019-12-02 19:00:00 5 15 Nordeste 34 Nordeste 0 -- -- 83
2019-12-02 18:00:00 6.4 15 Nordeste 32 Este 0 -- -- 81
2019-12-02 17:00:00 7.9 16 Nordeste 33 Nordeste 0 -- -- 77
2019-12-02 16:00:00 9 19 Nordeste 34 Nordeste 0 -- -- 69
2019-12-02 15:00:00 8.9 21 Nordeste 36 Nordeste 0 -- -- 71
2019-12-02 14:00:00 9.5 18 Nordeste 37 Nordeste 0 -- -- 66
2019-12-02 13:00:00 8.7 22 Este 36 Este 0 -- -- 69
2019-12-02 12:00:00 7.4 20 Este 32 Nordeste 0 -- -- 76
2019-12-02 11:00:00 5.5 14 Nordeste 27 Nordeste 0 -- -- 88
2019-12-02 10:00:00 3.6 9 Nordeste 17 Nordeste 0 -- -- 96
2019-12-02 09:00:00 2.2 9 Nordeste 15 Nordeste 0 -- -- 98
2019-12-02 08:00:00 2.2 8 Nordeste 18 Nordeste 0 -- -- 97
2019-12-02 07:00:00 2.6 11 Nordeste 19 Nordeste 0 -- -- 97
2019-12-02 06:00:00 2.7 9 Nordeste 22 Este 0 -- -- 97
2019-12-02 05:00:00 3 9 Nordeste 21 Nordeste 0 -- -- 97
2019-12-02 04:00:00 3.4 11 Nordeste 22 Nordeste 0 -- -- 97
2019-12-02 03:00:00 3.6 11 Nordeste 23 Nordeste 0 -- -- 96
2019-12-02 02:00:00 4.2 10 Nordeste 18 Nordeste 0 -- -- 94
2019-12-02 01:00:00 5 12 Nordeste 21 Nordeste 0 -- -- 95
2019-12-02 00:00:00 5.4 13 Nordeste 25 Nordeste 0.2 -- -- 97
2019-12-01 23:00:00 5.7 10 Nordeste 17 Nordeste 0.4 -- -- 98
2019-12-01 22:00:00 5.6 7 Nordeste 15 Nordeste 0.6 -- -- 98
2019-12-01 21:00:00 5.6 7 Nordeste 19 Nordeste 0.4 -- -- 96
2019-12-01 20:00:00 6 12 Nordeste 22 Nordeste 0 -- -- 93
2019-12-01 19:00:00 6.3 9 Nordeste 20 Este 0 -- -- 94
2019-12-01 18:00:00 7 13 Este 21 Este 0 -- -- 90
2019-12-01 17:00:00 7.9 9 Este 16 Este 0 -- -- 86
2019-12-01 16:00:00 8 9 Sudeste 18 Este 0 -- -- 84
2019-12-01 15:00:00 8.3 5 Sudeste 14 Sudeste 0 -- -- 83
2019-12-01 14:00:00 7.6 9 Sur 18 Sudeste 0 -- -- 87
2019-12-01 13:00:00 7 10 Sur 18 Sur 0.6 -- -- 89
2019-12-01 12:00:00 6.1 14 Sur 23 Sur 0 -- -- 90
2019-12-01 11:00:00 5.8 14 Sur 21 Sur 0.4 -- -- 94
2019-12-01 10:00:00 5.2 6 Sur 14 Sudoeste 2.2 -- -- 95
2019-12-01 09:00:00 4.7 7 Sur 12 Sur 1 -- -- 94
2019-12-01 08:00:00 4.7 10 Sur 17 Sudeste 0.4 -- -- 89
2019-12-01 07:00:00 4.9 10 Sur 18 Sur 0.2 -- -- 86
2019-12-01 06:00:00 4.1 10 Sur 17 Sur 0.2 -- -- 89
2019-12-01 05:00:00 3.6 9 Sur 15 Sur 0 -- -- 91
2019-12-01 04:00:00 2.6 8 Sudoeste 13 Sur 0 -- -- 93
2019-12-01 03:00:00 2.9 6 Sur 12 Sudoeste 0 -- -- 92
2019-12-01 02:00:00 3.5 6 Sur 20 Oeste 0 -- -- 92
2019-12-01 01:00:00 4.4 9 Sudoeste 18 Oeste 0 -- -- 93
2019-12-01 00:00:00 4.2 7 Sur 11 Sur 0 -- -- 95
2019-11-30 23:00:00 4.8 7 Sudoeste 12 Sur 0 -- -- 94
2019-11-30 22:00:00 5.8 7 Sudoeste 13 Sudoeste 0 -- -- 93
2019-11-30 21:00:00 7.1 7 Sudoeste 18 Oeste 0 -- -- 91
2019-11-30 20:00:00 7.5 10 Oeste 22 Sudoeste 0 -- -- 90
2019-11-30 19:00:00 7.3 12 Oeste 24 Oeste 1.2 -- -- 92
2019-11-30 18:00:00 7.6 12 Noroeste 31 Norte 2 -- -- 94
2019-11-30 17:00:00 9.2 12 Noroeste 23 Noroeste 2 -- -- 97
2019-11-30 16:00:00 9.1 9 Noroeste 53 Oeste 4 -- -- 96
2019-11-30 15:00:00 13.9 32 Oeste 54 Oeste 0 -- -- 79
2019-11-30 14:00:00 14.2 26 Oeste 42 Sudoeste 0 -- -- 75
2019-11-30 13:00:00 14.2 26 Oeste 42 Sudoeste 0 -- -- 76
2019-11-30 12:00:00 15 25 Oeste 51 Oeste 0 -- -- 73
2019-11-30 11:00:00 13.8 23 Oeste 43 Sudoeste 0 -- -- 76
2019-11-30 10:00:00 11.9 20 Sudoeste 31 Sudoeste 0 -- -- 84
2019-11-30 09:00:00 8.6 8 Sur 14 Sur 0 -- -- 92
2019-11-30 08:00:00 9.1 7 Sur 14 Sur 0 -- -- 94
2019-11-30 07:00:00 9.8 8 Sur 26 Oeste 0 -- -- 93
2019-11-30 06:00:00 10.8 15 Sudoeste 33 Oeste 0 -- -- 90
2019-11-30 05:00:00 11.4 18 Oeste 34 Oeste 0 -- -- 93
2019-11-30 04:00:00 11.2 14 Sudoeste 24 Oeste 0 -- -- 95
2019-11-30 03:00:00 10.8 5 Sudoeste 11 Sur 0 -- -- 95
2019-11-30 02:00:00 10.7 4 Sudoeste 18 Sudoeste 0 -- -- 94
2019-11-30 01:00:00 11.6 12 Sudoeste 19 Oeste 0 -- -- 94
2019-11-30 00:00:00 11.5 10 Oeste 17 Oeste 0.2 -- -- 97
2019-11-29 23:00:00 10.5 0 Calma 10 Sur 0 -- -- 97
2019-11-29 22:00:00 10.4 5 Sudoeste 10 Sur 0 -- -- 96
2019-11-29 21:00:00 10.8 3 Sudoeste 7 Sur 0 -- -- 94
2019-11-29 20:00:00 11.2 4 Oeste 8 Sudoeste 0 -- -- 95
2019-11-29 19:00:00 11.6 0 Calma 8 Noroeste 0 -- -- 92
2019-11-29 18:00:00 12.7 4 Oeste 10 Oeste 0 -- -- 90
2019-11-29 17:00:00 13.2 8 Oeste 23 Oeste 0 -- -- 87
2019-11-29 16:00:00 13.7 13 Noroeste 27 Oeste 0 -- -- 84
2019-11-29 15:00:00 13.5 17 Oeste 30 Oeste 0 -- -- 87
2019-11-29 14:00:00 13.5 11 Noroeste 27 Oeste 0.2 -- -- 90
2019-11-29 13:00:00 12.4 12 Oeste 21 Oeste 0.6 -- -- 95
2019-11-29 12:00:00 12.1 11 Oeste 22 Oeste 0.2 -- -- 97
2019-11-29 11:00:00 11.6 9 Oeste 15 Oeste 0.4 -- -- 97
2019-11-29 10:00:00 11.4 9 Noroeste 18 Noroeste 0 -- -- 96
2019-11-29 09:00:00 11.2 9 Oeste 18 Oeste 0 -- -- 96
2019-11-29 08:00:00 11.1 5 Oeste 15 Oeste 0 -- -- 95
2019-11-29 07:00:00 10.8 6 Oeste 18 Sudoeste 0 -- -- 96
2019-11-29 06:00:00 10.8 9 Oeste 21 Oeste 0 -- -- 96
2019-11-29 05:00:00 10.8 8 Oeste 25 Oeste 0 -- -- 96
2019-11-29 04:00:00 10.8 15 Oeste 30 Oeste 0 -- -- 95
2019-11-29 03:00:00 10.9 16 Oeste 41 Oeste 0 -- -- 93
2019-11-29 02:00:00 11.1 25 Oeste 39 Oeste 0 -- -- 91
2019-11-29 01:00:00 11.3 28 Oeste 42 Oeste 0 -- -- 89
2019-11-29 00:00:00 11.5 27 Oeste 42 Oeste 0 -- -- 86
2019-11-28 23:00:00 11.4 23 Oeste 42 Oeste 0 -- -- 84
2019-11-28 22:00:00 11.1 18 Oeste 33 Oeste 0 -- -- 82
2019-11-28 21:00:00 11 16 Oeste 36 Sudoeste 0 -- -- 81
2019-11-28 20:00:00 10.7 19 Sudoeste 37 Sudoeste 0 -- -- 83
2019-11-28 19:00:00 10.6 18 Sudoeste 39 Oeste 0 -- -- 81
2019-11-28 18:00:00 10.9 22 Oeste 48 Sudoeste 0 -- -- 81
2019-11-28 17:00:00 11.6 31 Oeste 45 Oeste 0 -- -- 81
2019-11-28 16:00:00 12 24 Oeste 42 Oeste 0 -- -- 76
2019-11-28 15:00:00 11.7 22 Oeste 47 Oeste 0 -- -- 73
2019-11-28 14:00:00 12 28 Oeste 48 Oeste 0 -- -- 76
2019-11-28 13:00:00 12.1 25 Oeste 40 Oeste 0 -- -- 76
2019-11-28 12:00:00 11.7 23 Oeste 39 Oeste 0 -- -- 79
2019-11-28 11:00:00 11.5 19 Oeste 36 Oeste 0 -- -- 77
2019-11-28 10:00:00 10.4 17 Sudoeste 31 Sudoeste 0 -- -- 81
2019-11-28 09:00:00 9 14 Sudoeste 23 Sudoeste 0 -- -- 86
2019-11-28 08:00:00 7.7 5 Sudoeste 21 Oeste 0 -- -- 92
2019-11-28 07:00:00 6.8 6 Sudoeste 17 Sudoeste 0 -- -- 93
2019-11-28 06:00:00 7.2 10 Sudoeste 28 Sudoeste 0 -- -- 91
2019-11-28 05:00:00 7.6 13 Sudoeste 35 Oeste 0 -- -- 91
2019-11-28 04:00:00 8.6 23 Oeste 35 Oeste 0 -- -- 87
2019-11-28 03:00:00 9 24 Oeste 40 Oeste 0 -- -- 84
2019-11-28 02:00:00 8.1 13 Oeste 30 Oeste 0 -- -- 86
2019-11-28 01:00:00 8.7 14 Oeste 26 Oeste 0 -- -- 86
2019-11-28 00:00:00 8.9 20 Oeste 31 Oeste 0 -- -- 88
2019-11-27 23:00:00 8.8 21 Oeste 35 Oeste 0 -- -- 89
2019-11-27 22:00:00 8.9 23 Oeste 36 Oeste 0 -- -- 88
2019-11-27 21:00:00 8.8 17 Oeste 31 Oeste 0 -- -- 88
2019-11-27 20:00:00 9.1 14 Oeste 31 Oeste 0 -- -- 86
2019-11-27 19:00:00 9.7 19 Oeste 33 Oeste 0 -- -- 79
2019-11-27 18:00:00 10.1 23 Oeste 37 Oeste 0 -- -- 77
2019-11-27 17:00:00 10.5 25 Oeste 46 Oeste 0 -- -- 74
2019-11-27 16:00:00 10.9 33 Oeste 49 Oeste 0 -- -- 72
2019-11-27 15:00:00 11.8 36 Oeste 51 Oeste 0 -- -- 66
2019-11-27 14:00:00 11.4 33 Oeste 49 Oeste 0 -- -- 69
2019-11-27 06:00:00 -- -- -- -- -- -- -- -- --
2019-11-27 05:00:00 7.3 19 Oeste 37 Oeste 0 -- -- 82
2019-11-27 04:00:00 7.8 22 Oeste 44 Noroeste 0 -- -- 80
2019-11-27 03:00:00 8.3 20 Noroeste 45 Oeste 0 -- -- 88
2019-11-27 02:00:00 9 21 Oeste 40 Noroeste 0 -- -- 90
2019-11-27 01:00:00 9.3 22 Noroeste 38 Oeste 0 -- -- 90
2019-11-27 00:00:00 9.9 24 Oeste 51 Oeste 0 -- -- 89
2019-11-26 23:00:00 11.3 23 Oeste 45 Oeste 0 -- -- 87
2019-11-26 22:00:00 11.8 25 Oeste 44 Oeste 0 -- -- 78
2019-11-26 21:00:00 11.8 20 Oeste 50 Oeste 0 -- -- 78
2019-11-26 20:00:00 12.6 27 Oeste 53 Oeste 0 -- -- 80
2019-11-26 19:00:00 13.9 17 Oeste 40 Sudoeste 0 -- -- 79
2019-11-26 18:00:00 14.8 22 Sudoeste 41 Oeste 0 -- -- 72
2019-11-26 17:00:00 15.4 26 Oeste 45 Sudoeste 0 -- -- 70
2019-11-26 16:00:00 15.3 18 Sudoeste 44 Oeste 0 -- -- 73
2019-11-26 15:00:00 16.1 23 Oeste 41 Oeste 0 -- -- 67
2019-11-26 14:00:00 15.9 21 Sudoeste 36 Sudoeste 0 -- -- 72
2019-11-26 13:00:00 14.6 16 Oeste 40 Oeste 0 -- -- 75
2019-11-26 12:00:00 14.9 18 Sudoeste 40 Sudoeste 0 -- -- 74
2019-11-26 11:00:00 12.5 20 Sudoeste 36 Sudoeste 0.2 -- -- 86
2019-11-26 10:00:00 11.6 14 Oeste 26 Oeste 0.2 -- -- 91
2019-11-26 09:00:00 9.3 5 Sudoeste 13 Sudoeste 0 -- -- 93
2019-11-26 08:00:00 9.5 4 Sur 12 Sur 0 -- -- 90
2019-11-26 07:00:00 8.8 10 Sur 13 Sur 0 -- -- 90
2019-11-26 06:00:00 8.2 7 Sur 13 Sur 0 -- -- 90
2019-11-26 05:00:00 7.7 7 Sur 12 Sur 0 -- -- 93
2019-11-26 04:00:00 7.1 9 Sur 13 Sur 0 -- -- 97
2019-11-26 03:00:00 6.5 9 Sur 16 Sur 0 -- -- 97
2019-11-26 02:00:00 6.5 7 Sudoeste 11 Sudoeste 0 -- -- 96
2019-11-26 01:00:00 7.1 9 Sur 14 Sur 0 -- -- 95
2019-11-26 00:00:00 7.5 9 Sur 13 Sur 0 -- -- 94
2019-11-25 23:00:00 7.7 6 Sudoeste 11 Sur 0 -- -- 94
2019-11-25 22:00:00 8.1 3 Sudoeste 10 Oeste 0 -- -- 92
2019-11-25 21:00:00 9.3 9 Oeste 15 Oeste 0 -- -- 90
2019-11-25 20:00:00 10.3 9 Oeste 17 Oeste 0 -- -- 87
2019-11-25 19:00:00 10.4 7 Oeste 18 Oeste 0 -- -- 86
2019-11-25 18:00:00 11.6 8 Noroeste 21 Noroeste 0 -- -- 84
2019-11-25 17:00:00 12.5 10 Noroeste 23 Noroeste 0 -- -- 80
2019-11-25 16:00:00 12.7 10 Noroeste 29 Noroeste 0 -- -- 78
2019-11-25 15:00:00 12.8 19 Noroeste 30 Noroeste 0 -- -- 77
2019-11-25 14:00:00 13 17 Noroeste 37 Oeste 0 -- -- 76
2019-11-25 13:00:00 12.3 19 Oeste 37 Oeste 0 -- -- 79
2019-11-25 12:00:00 12.8 24 Oeste 41 Oeste 0 -- -- 78
2019-11-25 11:00:00 12.3 22 Oeste 35 Oeste 0 -- -- 80
2019-11-25 10:00:00 10.6 14 Oeste 36 Oeste 0 -- -- 85
2019-11-25 09:00:00 10.1 19 Oeste 37 Sudoeste 0 -- -- 88
2019-11-25 08:00:00 9.6 17 Sudoeste 28 Oeste 0 -- -- 90
2019-11-25 07:00:00 9.3 12 Oeste 30 Oeste 0 -- -- 91
2019-11-25 06:00:00 9.4 11 Oeste 30 Oeste 0 -- -- 95
2019-11-25 05:00:00 9.5 17 Oeste 35 Oeste 0.4 -- -- 95
2019-11-25 04:00:00 9.9 23 Oeste 36 Oeste 0.2 -- -- 93
2019-11-25 03:00:00 10.3 26 Oeste 53 Oeste 0 -- -- 92
2019-11-25 02:00:00 10.9 31 Oeste 49 Oeste 0 -- -- 87
2019-11-25 01:00:00 10.6 20 Sudoeste 43 Sudoeste 0 -- -- 86
2019-11-25 00:00:00 10.3 23 Oeste 35 Oeste 0 -- -- 84
2019-11-24 23:00:00 8.2 13 Sudoeste 26 Oeste 0 -- -- 92
2019-11-24 22:00:00 7.7 12 Sudoeste 19 Sudoeste 0 -- -- 89
2019-11-24 21:00:00 7.7 7 Sudoeste 24 Oeste 0 -- -- 89
2019-11-24 20:00:00 7.7 8 Sudoeste 22 Sudoeste 0 -- -- 88
2019-11-24 19:00:00 8.4 8 Sudoeste 13 Sudoeste 0 -- -- 81
2019-11-24 18:00:00 8.5 6 Sudoeste 18 Oeste 0 -- -- 80
2019-11-24 17:00:00 8.8 12 Oeste 22 Oeste 0 -- -- 76
2019-11-24 16:00:00 8.9 14 Oeste 25 Oeste 0 -- -- 74
2019-11-24 15:00:00 8.3 17 Oeste 25 Oeste 0 -- -- 74
2019-11-24 14:00:00 8.4 15 Oeste 26 Oeste 0 -- -- 72
2019-11-24 13:00:00 8.4 12 Noroeste 31 Oeste 0 -- -- 70
2019-11-24 12:00:00 7.1 17 Oeste 28 Oeste 0 -- -- 79
2019-11-24 11:00:00 6.2 18 Oeste 30 Sudoeste 0 -- -- 85
2019-11-24 10:00:00 4.9 17 Oeste 30 Oeste 0 -- -- 90
2019-11-24 09:00:00 3.6 19 Oeste 31 Oeste 0 -- -- 94
2019-11-24 08:00:00 3.2 20 Oeste 35 Oeste 0 -- -- 96
2019-11-24 07:00:00 2.8 12 Oeste 26 Noroeste 0 -- -- 96
2019-11-24 06:00:00 3.3 11 Oeste 26 Oeste 0 -- -- 96
2019-11-24 05:00:00 3.4 12 Oeste 28 Oeste 0 -- -- 95
2019-11-24 04:00:00 3.5 12 Oeste 27 Oeste 0 -- -- 95
2019-11-24 03:00:00 3.5 15 Oeste 31 Oeste 0 -- -- 95
2019-11-24 02:00:00 3.7 16 Oeste 30 Oeste 0 -- -- 93
2019-11-24 01:00:00 4.1 13 Oeste 28 Oeste 0 -- -- 91
2019-11-24 00:00:00 4.3 19 Oeste 29 Oeste 0 -- -- 90
2019-11-23 23:00:00 4.5 15 Oeste 30 Oeste 0 -- -- 89
2019-11-23 22:00:00 4.9 16 Oeste 31 Oeste 0 -- -- 86
2019-11-23 21:00:00 5.4 20 Oeste 34 Oeste 0 -- -- 82
2019-11-23 20:00:00 5.8 14 Oeste 27 Oeste 0 -- -- 79
2019-11-23 19:00:00 6.3 13 Oeste 28 Oeste 0 -- -- 79
2019-11-23 18:00:00 7.6 13 Oeste 39 Noroeste 0 -- -- 75
2019-11-23 17:00:00 8.7 22 Noroeste 41 Noroeste 0 -- -- 68
2019-11-23 16:00:00 9.6 25 Noroeste 42 Noroeste 0 -- -- 66
2019-11-23 15:00:00 9.5 19 Noroeste 50 Noroeste 0 -- -- 64
2019-11-23 14:00:00 9.4 24 Noroeste 44 Noroeste 0 -- -- 67
2019-11-23 13:00:00 8.6 27 Noroeste 50 Noroeste 0 -- -- 73
2019-11-23 12:00:00 7.4 36 Noroeste 54 Noroeste 0 -- -- 76
2019-11-23 11:00:00 6.3 28 Noroeste 49 Oeste 0 -- -- 81
2019-11-23 10:00:00 4.9 19 Oeste 39 Oeste 0 -- -- 87
2019-11-23 09:00:00 3.8 20 Noroeste 38 Oeste 0 -- -- 89
2019-11-23 08:00:00 3.7 19 Oeste 38 Noroeste 0 -- -- 88
2019-11-23 07:00:00 4.2 28 Noroeste 56 Oeste 0 -- -- 86
2019-11-23 06:00:00 4.7 27 Noroeste 55 Oeste 0 -- -- 84
2019-11-23 05:00:00 5.3 27 Oeste 55 Oeste 0.2 -- -- 86
2019-11-23 04:00:00 5.2 26 Oeste 59 Oeste 0.6 -- -- 89
2019-11-23 03:00:00 5.5 26 Oeste 50 Oeste 0 -- -- 86
2019-11-23 02:00:00 5.6 30 Oeste 53 Oeste 0 -- -- 88
2019-11-23 01:00:00 5.6 34 Oeste 55 Oeste 1.4 -- -- 89
2019-11-23 00:00:00 7.2 24 Oeste 53 Oeste 0.2 -- -- 87
2019-11-22 23:00:00 7.5 21 Noroeste 55 Oeste 0.6 -- -- 88
2019-11-22 22:00:00 8.2 35 Oeste 47 Oeste 0 -- -- 83
2019-11-22 21:00:00 8.4 21 Oeste 44 Oeste 0 -- -- 80
2019-11-22 20:00:00 8.1 29 Oeste 44 Oeste 0 -- -- 82
2019-11-22 19:00:00 8.5 21 Oeste 46 Noroeste 0 -- -- 83
2019-11-22 18:00:00 9.4 26 Noroeste 53 Oeste 0.6 -- -- 81
2019-11-22 17:00:00 12.1 32 Oeste 53 Oeste 0.4 -- -- 81
2019-11-22 16:00:00 13.6 38 Oeste 60 Oeste 0 -- -- 77
2019-11-22 15:00:00 14 33 Oeste 62 Oeste 0 -- -- 72
2019-11-22 14:00:00 10.9 12 Sudoeste 34 Sur 0.2 -- -- 87
2019-11-22 13:00:00 9.5 22 Sur 45 Sur 1.8 -- -- 88
2019-11-22 12:00:00 10.7 27 Sur 49 Sur 0.2 -- -- 78
2019-11-22 11:00:00 11.4 26 Sur 42 Sur 0 -- -- 72
2019-11-22 10:00:00 8.9 23 Sur 37 Sur 0 -- -- 80
2019-11-22 09:00:00 7.5 21 Sur 32 Sur 0.2 -- -- 86
2019-11-22 08:00:00 6.5 9 Sur 16 Sudeste 1.4 -- -- 95
2019-11-22 07:00:00 6.7 6 Sudoeste 22 Sur 0.6 -- -- 91
2019-11-22 06:00:00 6.9 14 Sur 22 Sur 0 -- -- 89
2019-11-22 05:00:00 6.3 13 Sur 20 Sur 0.2 -- -- 92
2019-11-22 04:00:00 6.1 11 Sur 18 Sur 0.2 -- -- 92
2019-11-22 03:00:00 6.2 13 Sur 20 Sur 0 -- -- 87
2019-11-22 02:00:00 5.6 7 Sudoeste 13 Sur 0 -- -- 88
2019-11-22 01:00:00 5.3 6 Sur 13 Sur 0 -- -- 90
2019-11-22 00:00:00 5 7 Sur 17 Sur 0 -- -- 89
2019-11-21 23:00:00 4.5 6 Sudoeste 14 Sur 0 -- -- 92
2019-11-21 22:00:00 4.6 9 Sur 14 Sur 0 -- -- 92
2019-11-21 21:00:00 3.9 5 Sur 11 Sudoeste 0 -- -- 94
2019-11-21 20:00:00 4.2 8 Sur 12 Sudoeste 0 -- -- 91
2019-11-21 19:00:00 5.9 4 Sudoeste 13 Sudoeste 0 -- -- 87
2019-11-21 18:00:00 7.1 7 Sudoeste 20 Oeste 0.2 -- -- 84
2019-11-21 17:00:00 8.4 9 Oeste 23 Oeste 0 -- -- 80
2019-11-21 16:00:00 8.2 15 Noroeste 30 Noroeste 0 -- -- 76
2019-11-21 15:00:00 9.2 13 Noroeste 25 Oeste 0 -- -- 75
2019-11-21 14:00:00 8.2 11 Oeste 23 Noroeste 0.4 -- -- 84
2019-11-21 13:00:00 7.9 7 Noroeste 28 Oeste 0 -- -- 87
2019-11-21 12:00:00 7.7 17 Oeste 34 Oeste 0 -- -- 89
2019-11-21 11:00:00 7.6 17 Oeste 28 Oeste 0 -- -- 88
2019-11-21 10:00:00 6.2 11 Sudoeste 19 Sudoeste 0 -- -- 93
2019-11-21 09:00:00 4.9 8 Sudoeste 17 Sudoeste 0 -- -- 93
2019-11-21 08:00:00 4.8 9 Sudoeste 15 Sudoeste 0 -- -- 92
2019-11-21 07:00:00 4.3 5 Sur 14 Sudoeste 0 -- -- 91
2019-11-21 06:00:00 3.6 8 Sur 17 Sudoeste 0 -- -- 94
2019-11-21 05:00:00 3.5 4 Sur 11 Sur 0 -- -- 92
2019-11-21 04:00:00 3.2 8 Sur 11 Sudoeste 0 -- -- 93
2019-11-21 03:00:00 3 6 Sur 12 Sur 0 -- -- 94
2019-11-21 02:00:00 2.2 9 Sur 14 Sur 0 -- -- 95
2019-11-21 01:00:00 3 9 Sur 17 Sur 0 -- -- 94
2019-11-21 00:00:00 3.7 10 Sur 15 Sudoeste 0 -- -- 93
2019-11-20 23:00:00 3.8 8 Sur 12 Sur 0.2 -- -- 93
2019-11-20 22:00:00 5.1 6 Sur 15 Sudoeste 0 -- -- 91
2019-11-20 21:00:00 5.2 3 Sudoeste 8 Sur 0 -- -- 94
2019-11-20 20:00:00 5.4 4 Sudoeste 12 Sudoeste 0 -- -- 92
2019-11-20 19:00:00 5.6 11 Sudoeste 28 Oeste 0 -- -- 89
2019-11-20 18:00:00 6.1 6 Sur 13 Sur 0 -- -- 94
2019-11-20 17:00:00 6.2 7 Sur 12 Sur 0.2 -- -- 92
2019-11-20 16:00:00 6.4 5 Sur 12 Sur 0.6 -- -- 90
2019-11-20 15:00:00 6.5 9 Sur 16 Sur 0.2 -- -- 87
2019-11-20 14:00:00 6.6 6 Sudoeste 13 Sur 0.6 -- -- 90
2019-11-20 13:00:00 6.1 4 Sur 12 Oeste 0.6 -- -- 89
2019-11-20 12:00:00 5.9 5 Oeste 13 Sur 0.2 -- -- 88
2019-11-20 11:00:00 5.2 7 Sur 10 Sudoeste 0.2 -- -- 93
2019-11-20 10:00:00 4.8 6 Sudoeste 22 Sudoeste 0 -- -- 91
2019-11-20 09:00:00 4.8 8 Sudoeste 17 Sudoeste 0 -- -- 87
2019-11-20 08:00:00 4.2 6 Sudoeste 9 Sudoeste 0.4 -- -- 89
2019-11-20 07:00:00 4.2 5 Sur 9 Sur 0 -- -- 86
2019-11-20 06:00:00 3.7 5 Sur 8 Sur 0 -- -- 90
2019-11-20 05:00:00 2.8 3 Sur 10 Sur 0 -- -- 92
2019-11-20 04:00:00 2.6 3 Sudoeste 6 Sur 0 -- -- 92
2019-11-20 03:00:00 3.1 3 Sur 6 Sur 0 -- -- 91
2019-11-20 02:00:00 3.6 2 Sur 6 Oeste 0 -- -- 88
2019-11-20 01:00:00 4.2 4 Sudeste 8 Sur 0 -- -- 86
2019-11-20 00:00:00 4.1 4 Sur 9 Sur 0 -- -- 85
2019-11-19 23:00:00 3.9 5 Sur 9 Sur 0 -- -- 86
2019-11-19 22:00:00 4.1 5 Sur 9 Sur 0 -- -- 84
2019-11-19 21:00:00 4.2 4 Sur 8 Sur 0 -- -- 84
2019-11-19 20:00:00 4.5 2 Sur 5 Sur 0 -- -- 86
2019-11-19 19:00:00 5.4 0 Calma 3 Oeste 0 -- -- 81
2019-11-19 18:00:00 6.8 0 Calma 4 Oeste 0 -- -- 71
2019-11-19 17:00:00 7.9 3 Oeste 15 Oeste 0 -- -- 63
2019-11-19 16:00:00 8.8 8 Oeste 16 Oeste 0 -- -- 60
2019-11-19 15:00:00 8.7 6 Noroeste 12 Oeste 0 -- -- 64
2019-11-19 14:00:00 8.8 5 Sudoeste 13 Sudoeste 0 -- -- 63
2019-11-19 13:00:00 8.3 7 Oeste 13 Oeste 0 -- -- 68
2019-11-19 12:00:00 6.6 5 Sudoeste 10 Sur 0 -- -- 79
2019-11-19 11:00:00 3.3 5 Sur 12 Sur 0 -- -- 92
2019-11-19 10:00:00 0.8 4 Sudoeste 12 Sur 0 -- -- 96
2019-11-19 09:00:00 -0.5 5 Sur 9 Sur 0 -- -- 97
2019-11-19 08:00:00 -1.1 5 Sur 9 Sur 0 -- -- 97
2019-11-19 07:00:00 -1.2 5 Sur 9 Sur 0 -- -- 97
2019-11-19 06:00:00 -1 4 Sur 8 Sur 0 -- -- 96
2019-11-19 05:00:00 -0.6 4 Sudoeste 8 Sudoeste 0 -- -- 96
2019-11-19 04:00:00 -0.2 5 Sur 7 Sur 0 -- -- 97
2019-11-19 03:00:00 0.3 3 Sudoeste 8 Sudoeste 0 -- -- 96
2019-11-19 02:00:00 0.6 0 Calma 9 Sur 0 -- -- 96
2019-11-19 01:00:00 0.9 6 Sur 10 Sur 0 -- -- 97
2019-11-19 00:00:00 0.9 3 Sur 5 Nordeste 0 -- -- 95
2019-11-18 23:00:00 2 3 Sudeste 6 Sur 0 -- -- 94
2019-11-18 22:00:00 2.7 4 Sudeste 6 Sur 0 -- -- 92
2019-11-18 21:00:00 3.7 0 Calma 5 Sur 0 -- -- 90
2019-11-18 20:00:00 5.1 3 Sudoeste 10 Sudoeste 0 -- -- 86
2019-11-18 19:00:00 5.7 3 Sudoeste 6 Sudoeste 0 -- -- 85
2019-11-18 18:00:00 6.8 3 Sudoeste 9 Oeste 0 -- -- 77
2019-11-18 17:00:00 6.9 2 Sur 12 Noroeste 0 -- -- 73
2019-11-18 16:00:00 7.6 3 Nordeste 10 Noroeste 0 -- -- 70
2019-11-18 15:00:00 7.2 5 Nordeste 13 Norte 0 -- -- 73
2019-11-18 14:00:00 7.1 4 Nordeste 13 Norte 0 -- -- 71
2019-11-18 13:00:00 6.3 8 Norte 13 Norte 0 -- -- 77
2019-11-18 12:00:00 5.8 4 Noroeste 12 Noroeste 0 -- -- 82
2019-11-18 11:00:00 3.9 5 Noroeste 13 Oeste 0 -- -- 88
2019-11-18 10:00:00 1.8 8 Oeste 13 Oeste 0 -- -- 97
2019-11-18 09:00:00 0.9 6 Noroeste 13 Noroeste 0 -- -- 98
2019-11-18 08:00:00 0.2 0 Calma 8 Noroeste 0 -- -- 98
2019-11-18 07:00:00 0.1 3 Oeste 9 Noroeste 0 -- -- 98
2019-11-18 06:00:00 0.4 4 Noroeste 8 Noroeste 0 -- -- 97
2019-11-18 05:00:00 0.9 5 Noroeste 14 Noroeste 0 -- -- 97
2019-11-18 04:00:00 1.4 4 Noroeste 16 Noroeste 0 -- -- 95
2019-11-18 03:00:00 2.3 9 Noroeste 23 Noroeste 0 -- -- 94
2019-11-18 02:00:00 3.1 12 Noroeste 22 Noroeste 0 -- -- 93
2019-11-18 01:00:00 3.2 10 Oeste 27 Noroeste 0 -- -- 94
2019-11-18 00:00:00 2.8 10 Oeste 18 Oeste 0 -- -- 95
2019-11-17 23:00:00 3.4 9 Oeste 17 Oeste 0 -- -- 92
2019-11-17 22:00:00 3.9 8 Oeste 22 Noroeste 0 -- -- 93
2019-11-17 21:00:00 5.3 11 Noroeste 23 Noroeste 0 -- -- 90
2019-11-17 20:00:00 6.7 12 Noroeste 28 Noroeste 0 -- -- 85
2019-11-17 19:00:00 7.6 13 Noroeste 24 Oeste 0 -- -- 91
2019-11-17 18:00:00 8.5 9 Noroeste 27 Noroeste 0 -- -- 90
2019-11-17 17:00:00 9.5 22 Noroeste 36 Noroeste 0 -- -- 83
2019-11-17 16:00:00 9.7 22 Noroeste 34 Noroeste 0.2 -- -- 89
2019-11-17 15:00:00 9.1 20 Oeste 43 Oeste 0 -- -- 90
2019-11-17 14:00:00 8.2 20 Oeste 42 Oeste 0.2 -- -- 95
2019-11-17 13:00:00 7.8 31 Oeste 44 Oeste 0.8 -- -- 94
2019-11-17 12:00:00 7.4 30 Oeste 47 Oeste 0.4 -- -- 93
2019-11-17 11:00:00 6.5 25 Oeste 40 Oeste 0.6 -- -- 93
2019-11-17 10:00:00 6 19 Oeste 31 Sudoeste 0 -- -- 90
2019-11-17 09:00:00 4.8 8 Sudoeste 16 Sudoeste 0 -- -- 91
2019-11-17 08:00:00 4.4 8 Oeste 19 Sudoeste 0.2 -- -- 89
2019-11-17 07:00:00 4 8 Sudoeste 17 Sudoeste 0 -- -- 87
2019-11-17 06:00:00 3.7 10 Sudoeste 24 Sudoeste 0 -- -- 88
2019-11-17 05:00:00 3.8 17 Oeste 26 Oeste 0 -- -- 83
2019-11-17 04:00:00 3.6 18 Oeste 34 Oeste 0 -- -- 83
2019-11-17 03:00:00 3.2 21 Oeste 31 Oeste 0 -- -- 83
2019-11-17 02:00:00 2.8 14 Oeste 30 Oeste 0 -- -- 83
2019-11-17 01:00:00 3.2 16 Oeste 26 Oeste 0 -- -- 80
2019-11-17 00:00:00 3.3 16 Oeste 25 Oeste 0 -- -- 81
2019-11-16 23:00:00 2.2 11 Sudoeste 18 Oeste 0 -- -- 87
2019-11-16 22:00:00 2.1 10 Oeste 18 Oeste 0 -- -- 83
2019-11-16 21:00:00 2.5 13 Oeste 22 Oeste 0 -- -- 83
2019-11-16 20:00:00 3.7 14 Oeste 27 Oeste 0 -- -- 77
2019-11-16 19:00:00 4.1 11 Oeste 22 Oeste 0 -- -- 78
2019-11-16 18:00:00 5.5 17 Oeste 27 Oeste 0 -- -- 77
2019-11-16 17:00:00 6.8 15 Oeste 29 Oeste 0 -- -- 66
2019-11-16 16:00:00 7.3 16 Oeste 26 Oeste 0 -- -- 59
2019-11-16 15:00:00 7.6 14 Oeste 28 Oeste 0 -- -- 63
2019-11-16 14:00:00 6.7 13 Oeste 24 Oeste 0 -- -- 65
2019-11-16 13:00:00 6.3 13 Noroeste 22 Oeste 0 -- -- 65
2019-11-16 12:00:00 4.8 14 Oeste 25 Oeste 0 -- -- 73
2019-11-16 11:00:00 3.1 15 Oeste 26 Oeste 0 -- -- 83
2019-11-16 10:00:00 2 14 Oeste 21 Oeste 0 -- -- 84
2019-11-16 09:00:00 0 10 Oeste 14 Oeste 0 -- -- 94
2019-11-16 08:00:00 -1.2 4 Sudoeste 13 Oeste 0 -- -- 95
2019-11-16 07:00:00 -0.5 9 Oeste 14 Oeste 0 -- -- 95
2019-11-16 06:00:00 -0.4 5 Oeste 15 Noroeste 0 -- -- 95
2019-11-16 05:00:00 -0.1 6 Noroeste 13 Noroeste 0 -- -- 94
2019-11-16 04:00:00 0 6 Oeste 10 Noroeste 0 -- -- 94
2019-11-16 03:00:00 0.2 8 Noroeste 15 Noroeste 0 -- -- 93
2019-11-16 02:00:00 0.5 8 Noroeste 17 Oeste 0 -- -- 93
2019-11-16 01:00:00 0.8 9 Noroeste 19 Noroeste 0 -- -- 92
2019-11-16 00:00:00 1.4 6 Noroeste 17 Oeste 0 -- -- 91
2019-11-15 23:00:00 2.3 9 Oeste 22 Noroeste 0 -- -- 89
2019-11-15 22:00:00 3 9 Noroeste 26 Noroeste 0 -- -- 83
2019-11-15 21:00:00 3.1 17 Noroeste 28 Oeste 0 -- -- 82
2019-11-15 20:00:00 3.7 18 Noroeste 30 Oeste 0 -- -- 78
2019-11-15 19:00:00 4 17 Noroeste 33 Noroeste 0 -- -- 77
2019-11-15 18:00:00 5.4 16 Noroeste 31 Noroeste 0 -- -- 71
2019-11-15 17:00:00 6.6 17 Noroeste 34 Oeste 0 -- -- 63
2019-11-15 16:00:00 7.1 14 Noroeste 36 Noroeste 0 -- -- 59
2019-11-15 15:00:00 6.9 15 Noroeste 35 Noroeste 0 -- -- 60
2019-11-15 14:00:00 6.7 16 Noroeste 33 Oeste 0 -- -- 61
2019-11-15 13:00:00 5.6 20 Noroeste 35 Oeste 0 -- -- 74
2019-11-15 12:00:00 5 17 Noroeste 30 Noroeste 0 -- -- 76
2019-11-15 11:00:00 4 13 Oeste 30 Oeste 0 -- -- 87
2019-11-15 10:00:00 2.6 17 Oeste 27 Noroeste 0 -- -- 88
2019-11-15 09:00:00 0.9 13 Oeste 23 Oeste 0 -- -- 95
2019-11-15 08:00:00 0.4 12 Noroeste 24 Oeste 0 -- -- 94
2019-11-15 07:00:00 0.8 15 Noroeste 28 Oeste 0 -- -- 93
2019-11-15 06:00:00 1.4 13 Noroeste 32 Oeste 0 -- -- 92
2019-11-15 05:00:00 2.3 14 Noroeste 34 Noroeste 0 -- -- 92
2019-11-15 04:00:00 2.6 20 Noroeste 32 Noroeste 0.2 -- -- 92
2019-11-15 03:00:00 2.1 13 Oeste 44 Oeste 0.6 -- -- 95
2019-11-15 02:00:00 2.9 21 Noroeste 35 Noroeste 0 -- -- 90
2019-11-15 01:00:00 2.8 15 Noroeste 36 Noroeste 0 -- -- 91
2019-11-15 00:00:00 3.3 19 Noroeste 41 Noroeste 0 -- -- 88